sensor_id;sensor_type;location;lat;lon;timestamp;pressure;altitude;pressure_sealevel;temperature;humidity
61618;BME280;47518;51.776;9.370;2023-03-14T00:01:33;97803.31;;;11.20;82.21
61618;BME280;47518;51.776;9.370;2023-03-14T00:03:58;97798.88;;;11.14;81.64
61618;BME280;47518;51.776;9.370;2023-03-14T00:06:27;97790.50;;;11.03;82.02
61618;BME280;47518;51.776;9.370;2023-03-14T00:08:52;97781.16;;;10.99;82.03
61618;BME280;47518;51.776;9.370;2023-03-14T00:11:21;97770.84;;;11.13;81.87
61618;BME280;47518;51.776;9.370;2023-03-14T00:13:50;97803.72;;;11.12;82.03
61618;BME280;47518;51.776;9.370;2023-03-14T00:16:17;97823.72;;;11.05;81.61
61618;BME280;47518;51.776;9.370;2023-03-14T00:18:46;97825.94;;;11.08;81.63
61618;BME280;47518;51.776;9.370;2023-03-14T00:21:14;97827.59;;;11.09;81.52
61618;BME280;47518;51.776;9.370;2023-03-14T00:23:44;97844.69;;;11.22;80.15
61618;BME280;47518;51.776;9.370;2023-03-14T00:26:12;97847.94;;;11.07;81.02
61618;BME280;47518;51.776;9.370;2023-03-14T00:28:38;97869.69;;;11.07;80.38
61618;BME280;47518;51.776;9.370;2023-03-14T00:31:05;97865.66;;;11.09;81.15
61618;BME280;47518;51.776;9.370;2023-03-14T00:33:32;97850.81;;;11.00;80.47
61618;BME280;47518;51.776;9.370;2023-03-14T00:36:01;97874.88;;;11.08;79.65
61618;BME280;47518;51.776;9.370;2023-03-14T00:38:34;97864.00;;;11.08;79.03
61618;BME280;47518;51.776;9.370;2023-03-14T00:41:03;97863.09;;;11.03;79.93
61618;BME280;47518;51.776;9.370;2023-03-14T00:43:29;97861.19;;;11.03;79.52
61618;BME280;47518;51.776;9.370;2023-03-14T00:45:54;97874.31;;;11.06;79.27
61618;BME280;47518;51.776;9.370;2023-03-14T00:48:20;97861.28;;;11.08;78.22
61618;BME280;47518;51.776;9.370;2023-03-14T00:50:49;97859.06;;;11.05;78.02
61618;BME280;47518;51.776;9.370;2023-03-14T00:53:14;97851.16;;;11.04;77.44
61618;BME280;47518;51.776;9.370;2023-03-14T00:55:41;97853.94;;;11.09;77.13
61618;BME280;47518;51.776;9.370;2023-03-14T00:58:08;97834.69;;;10.99;77.93
61618;BME280;47518;51.776;9.370;2023-03-14T01:00:35;97823.72;;;11.05;77.30
61618;BME280;47518;51.776;9.370;2023-03-14T01:03:01;97820.75;;;11.07;76.35
61618;BME280;47518;51.776;9.370;2023-03-14T01:05:27;97826.91;;;11.02;77.06
61618;BME280;47518;51.776;9.370;2023-03-14T01:07:52;97834.94;;;10.97;76.76
61618;BME280;47518;51.776;9.370;2023-03-14T01:10:20;97842.66;;;11.00;76.57
61618;BME280;47518;51.776;9.370;2023-03-14T01:12:46;97816.31;;;10.89;77.29
61618;BME280;47518;51.776;9.370;2023-03-14T01:15:11;97832.84;;;10.88;77.43
61618;BME280;47518;51.776;9.370;2023-03-14T01:17:36;97861.31;;;10.85;76.87
61618;BME280;47518;51.776;9.370;2023-03-14T01:20:05;97821.13;;;10.87;76.94
61618;BME280;47518;51.776;9.370;2023-03-14T01:22:32;97839.09;;;10.88;76.50
61618;BME280;47518;51.776;9.370;2023-03-14T01:24:57;97849.84;;;10.95;75.80
61618;BME280;47518;51.776;9.370;2023-03-14T01:27:22;97857.41;;;11.04;74.93
61618;BME280;47518;51.776;9.370;2023-03-14T01:29:48;97845.38;;;11.00;75.78
61618;BME280;47518;51.776;9.370;2023-03-14T01:32:13;97841.91;;;11.05;75.09
61618;BME280;47518;51.776;9.370;2023-03-14T01:34:39;97838.84;;;11.01;74.49
61618;BME280;47518;51.776;9.370;2023-03-14T01:37:04;97825.16;;;10.96;75.50
61618;BME280;47518;51.776;9.370;2023-03-14T01:39:31;97818.06;;;10.95;75.37
61618;BME280;47518;51.776;9.370;2023-03-14T01:41:56;97790.16;;;11.00;74.41
61618;BME280;47518;51.776;9.370;2023-03-14T01:44:23;97781.41;;;10.98;74.74
61618;BME280;47518;51.776;9.370;2023-03-14T01:46:49;97768.50;;;11.05;74.40
61618;BME280;47518;51.776;9.370;2023-03-14T01:49:34;97780.00;;;10.95;74.66
61618;BME280;47518;51.776;9.370;2023-03-14T01:54:46;97778.13;;;10.84;73.80
61618;BME280;47518;51.776;9.370;2023-03-14T01:57:24;97769.25;;;11.00;73.39
61618;BME280;47518;51.776;9.370;2023-03-14T02:00:05;97788.72;;;10.97;73.10
61618;BME280;47518;51.776;9.370;2023-03-14T02:02:36;97777.53;;;10.94;73.82
61618;BME280;47518;51.776;9.370;2023-03-14T02:05:02;97792.03;;;10.99;72.31
61618;BME280;47518;51.776;9.370;2023-03-14T02:07:34;97794.16;;;10.97;72.86
61618;BME280;47518;51.776;9.370;2023-03-14T02:10:03;97788.03;;;11.02;73.41
61618;BME280;47518;51.776;9.370;2023-03-14T02:12:29;97786.50;;;10.94;73.14
61618;BME280;47518;51.776;9.370;2023-03-14T02:14:54;97792.28;;;10.98;72.18
61618;BME280;47518;51.776;9.370;2023-03-14T02:17:22;97789.22;;;10.94;73.18
61618;BME280;47518;51.776;9.370;2023-03-14T02:22:42;97779.97;;;11.07;72.05
61618;BME280;47518;51.776;9.370;2023-03-14T02:28:07;97780.25;;;10.94;71.81
61618;BME280;47518;51.776;9.370;2023-03-14T02:30:33;97763.47;;;10.85;72.61
61618;BME280;47518;51.776;9.370;2023-03-14T02:33:05;97774.34;;;10.85;72.48
61618;BME280;47518;51.776;9.370;2023-03-14T02:35:43;97755.44;;;10.90;72.54
61618;BME280;47518;51.776;9.370;2023-03-14T02:38:17;97769.28;;;10.89;72.66
61618;BME280;47518;51.776;9.370;2023-03-14T02:40:44;97770.69;;;10.91;72.69
61618;BME280;47518;51.776;9.370;2023-03-14T02:43:09;97773.66;;;10.90;72.94
61618;BME280;47518;51.776;9.370;2023-03-14T02:45:39;97772.91;;;10.94;72.95
61618;BME280;47518;51.776;9.370;2023-03-14T02:48:11;97776.38;;;10.90;72.80
61618;BME280;47518;51.776;9.370;2023-03-14T02:50:45;97775.16;;;10.86;73.50
61618;BME280;47518;51.776;9.370;2023-03-14T02:53:13;97781.44;;;10.86;73.62
61618;BME280;47518;51.776;9.370;2023-03-14T02:55:46;97771.50;;;10.92;73.59
61618;BME280;47518;51.776;9.370;2023-03-14T02:58:12;97771.78;;;10.78;73.53
61618;BME280;47518;51.776;9.370;2023-03-14T03:00:37;97760.28;;;10.88;73.18
61618;BME280;47518;51.776;9.370;2023-03-14T03:03:03;97759.44;;;10.88;74.04
61618;BME280;47518;51.776;9.370;2023-03-14T03:05:31;97771.50;;;10.92;74.00
61618;BME280;47518;51.776;9.370;2023-03-14T03:07:57;97758.63;;;10.87;74.53
61618;BME280;47518;51.776;9.370;2023-03-14T03:10:28;97761.13;;;10.89;74.05
61618;BME280;47518;51.776;9.370;2023-03-14T03:12:53;97765.38;;;10.85;74.48
61618;BME280;47518;51.776;9.370;2023-03-14T03:15:19;97748.28;;;10.72;74.82
61618;BME280;47518;51.776;9.370;2023-03-14T03:17:44;97745.84;;;10.88;75.33
61618;BME280;47518;51.776;9.370;2023-03-14T03:20:10;97754.88;;;10.76;75.69
61618;BME280;47518;51.776;9.370;2023-03-14T03:22:37;97741.41;;;10.81;74.76
61618;BME280;47518;51.776;9.370;2023-03-14T03:25:04;97742.50;;;10.69;75.34
61618;BME280;47518;51.776;9.370;2023-03-14T03:27:33;97748.75;;;10.69;75.58
61618;BME280;47518;51.776;9.370;2023-03-14T03:29:59;97735.66;;;10.66;75.95
61618;BME280;47518;51.776;9.370;2023-03-14T03:32:25;97738.03;;;10.39;81.11
61618;BME280;47518;51.776;9.370;2023-03-14T03:34:53;97751.84;;;10.03;84.15
61618;BME280;47518;51.776;9.370;2023-03-14T03:37:20;97759.59;;;9.64;87.10
61618;BME280;47518;51.776;9.370;2023-03-14T03:39:45;97767.47;;;9.54;89.21
61618;BME280;47518;51.776;9.370;2023-03-14T03:42:11;97789.44;;;9.34;91.53
61618;BME280;47518;51.776;9.370;2023-03-14T03:44:36;97782.78;;;9.18;94.23
61618;BME280;47518;51.776;9.370;2023-03-14T03:47:02;97802.53;;;9.07;97.00
61618;BME280;47518;51.776;9.370;2023-03-14T03:49:31;97794.13;;;8.97;98.20
61618;BME280;47518;51.776;9.370;2023-03-14T03:51:57;97786.97;;;8.84;98.78
61618;BME280;47518;51.776;9.370;2023-03-14T03:54:23;97776.66;;;8.74;98.83
61618;BME280;47518;51.776;9.370;2023-03-14T03:56:52;97771.31;;;8.68;100.00
61618;BME280;47518;51.776;9.370;2023-03-14T03:59:17;97755.63;;;8.58;100.00
61618;BME280;47518;51.776;9.370;2023-03-14T04:01:43;97756.44;;;8.40;100.00
61618;BME280;47518;51.776;9.370;2023-03-14T04:04:08;97772.44;;;8.42;100.00
61618;BME280;47518;51.776;9.370;2023-03-14T04:09:12;97778.25;;;8.20;100.00
61618;BME280;47518;51.776;9.370;2023-03-14T04:11:38;97787.09;;;8.09;100.00
61618;BME280;47518;51.776;9.370;2023-03-14T04:14:04;97766.41;;;7.97;100.00
61618;BME280;47518;51.776;9.370;2023-03-14T04:16:42;97769.34;;;7.95;100.00
61618;BME280;47518;51.776;9.370;2023-03-14T04:19:07;97750.66;;;7.87;100.00
61618;BME280;47518;51.776;9.370;2023-03-14T04:21:38;97749.75;;;7.75;100.00
61618;BME280;47518;51.776;9.370;2023-03-14T04:24:11;97749.97;;;7.73;100.00
61618;BME280;47518;51.776;9.370;2023-03-14T04:26:39;97739.97;;;7.74;100.00
61618;BME280;47518;51.776;9.370;2023-03-14T04:29:05;97756.38;;;7.79;100.00
61618;BME280;47518;51.776;9.370;2023-03-14T04:31:33;97747.47;;;7.72;100.00
61618;BME280;47518;51.776;9.370;2023-03-14T04:34:01;97753.69;;;7.79;100.00
61618;BME280;47518;51.776;9.370;2023-03-14T04:36:36;97746.38;;;7.79;100.00
61618;BME280;47518;51.776;9.370;2023-03-14T04:39:01;97745.94;;;7.82;100.00
61618;BME280;47518;51.776;9.370;2023-03-14T04:41:29;97743.84;;;7.84;100.00
61618;BME280;47518;51.776;9.370;2023-03-14T04:43:58;97743.25;;;7.82;100.00
61618;BME280;47518;51.776;9.370;2023-03-14T04:46:37;97730.16;;;7.79;100.00
61618;BME280;47518;51.776;9.370;2023-03-14T04:49:21;97737.59;;;7.84;100.00
61618;BME280;47518;51.776;9.370;2023-03-14T04:51:55;97722.09;;;7.73;100.00
61618;BME280;47518;51.776;9.370;2023-03-14T04:54:23;97707.59;;;7.67;100.00
61618;BME280;47518;51.776;9.370;2023-03-14T04:56:52;97724.88;;;7.66;100.00
61618;BME280;47518;51.776;9.370;2023-03-14T04:59:23;97720.72;;;7.64;100.00
61618;BME280;47518;51.776;9.370;2023-03-14T05:01:49;97709.47;;;7.67;100.00
61618;BME280;47518;51.776;9.370;2023-03-14T05:04:18;97704.94;;;7.60;100.00
61618;BME280;47518;51.776;9.370;2023-03-14T05:06:49;97694.56;;;7.57;100.00
61618;BME280;47518;51.776;9.370;2023-03-14T05:09:21;97698.56;;;7.55;100.00
61618;BME280;47518;51.776;9.370;2023-03-14T05:11:55;97701.84;;;7.57;100.00
61618;BME280;47518;51.776;9.370;2023-03-14T05:14:21;97690.94;;;7.45;100.00
61618;BME280;47518;51.776;9.370;2023-03-14T05:16:47;97690.75;;;7.40;100.00
61618;BME280;47518;51.776;9.370;2023-03-14T05:19:12;97709.13;;;7.56;100.00
61618;BME280;47518;51.776;9.370;2023-03-14T05:21:37;97695.44;;;7.51;100.00
61618;BME280;47518;51.776;9.370;2023-03-14T05:24:03;97693.91;;;7.62;100.00
61618;BME280;47518;51.776;9.370;2023-03-14T05:26:34;97704.22;;;7.72;100.00
61618;BME280;47518;51.776;9.370;2023-03-14T05:29:05;97689.81;;;7.78;97.87
61618;BME280;47518;51.776;9.370;2023-03-14T05:31:30;97715.00;;;7.78;99.25
61618;BME280;47518;51.776;9.370;2023-03-14T05:33:55;97712.78;;;7.69;99.42
61618;BME280;47518;51.776;9.370;2023-03-14T05:36:47;97714.66;;;7.68;99.88
61618;BME280;47518;51.776;9.370;2023-03-14T05:39:13;97699.63;;;7.72;99.99
61618;BME280;47518;51.776;9.370;2023-03-14T05:41:38;97699.72;;;7.84;98.99
61618;BME280;47518;51.776;9.370;2023-03-14T05:44:04;97683.81;;;7.76;98.83
61618;BME280;47518;51.776;9.370;2023-03-14T05:46:49;97691.69;;;7.77;98.79
61618;BME280;47518;51.776;9.370;2023-03-14T05:49:15;97691.34;;;7.92;98.06
61618;BME280;47518;51.776;9.370;2023-03-14T05:51:40;97690.78;;;7.83;97.91
61618;BME280;47518;51.776;9.370;2023-03-14T05:54:05;97706.75;;;7.92;98.57
61618;BME280;47518;51.776;9.370;2023-03-14T05:56:32;97693.59;;;7.95;96.61
61618;BME280;47518;51.776;9.370;2023-03-14T05:58:57;97697.34;;;7.94;97.59
61618;BME280;47518;51.776;9.370;2023-03-14T06:01:25;97694.41;;;7.96;98.11
61618;BME280;47518;51.776;9.370;2023-03-14T06:03:51;97704.25;;;7.90;97.77
61618;BME280;47518;51.776;9.370;2023-03-14T06:06:53;97706.25;;;8.01;96.76
61618;BME280;47518;51.776;9.370;2023-03-14T06:35:10;97676.47;;;8.19;97.01
61618;BME280;47518;51.776;9.370;2023-03-14T06:37:44;97685.13;;;8.28;96.82
61618;BME280;47518;51.776;9.370;2023-03-14T06:49:53;97664.88;;;8.67;94.64
61618;BME280;47518;51.776;9.370;2023-03-14T06:52:44;97672.97;;;8.67;95.68
61618;BME280;47518;51.776;9.370;2023-03-14T06:55:27;97655.38;;;8.76;93.66
61618;BME280;47518;51.776;9.370;2023-03-14T06:58:33;97674.97;;;8.90;93.18
61618;BME280;47518;51.776;9.370;2023-03-14T07:01:02;97650.47;;;8.85;92.74
61618;BME280;47518;51.776;9.370;2023-03-14T07:03:30;97657.66;;;8.91;93.11
61618;BME280;47518;51.776;9.370;2023-03-14T07:09:55;97651.69;;;9.01;93.25
61618;BME280;47518;51.776;9.370;2023-03-14T07:12:21;97647.56;;;8.98;91.49
61618;BME280;47518;51.776;9.370;2023-03-14T07:14:55;97645.81;;;9.04;93.49
61618;BME280;47518;51.776;9.370;2023-03-14T07:17:23;97657.28;;;9.18;90.93
61618;BME280;47518;51.776;9.370;2023-03-14T07:20:01;97657.38;;;9.23;90.98
61618;BME280;47518;51.776;9.370;2023-03-14T07:22:57;97651.97;;;9.23;90.75
61618;BME280;47518;51.776;9.370;2023-03-14T07:29:13;97664.75;;;9.46;89.82
61618;BME280;47518;51.776;9.370;2023-03-14T07:35:16;97655.19;;;9.55;89.12
61618;BME280;47518;51.776;9.370;2023-03-14T07:38:02;97656.25;;;9.42;90.43
61618;BME280;47518;51.776;9.370;2023-03-14T07:43:39;97666.69;;;9.15;92.27
61618;BME280;47518;51.776;9.370;2023-03-14T07:46:58;97663.59;;;9.12;94.07
61618;BME280;47518;51.776;9.370;2023-03-14T07:50:06;97657.53;;;9.28;91.04
61618;BME280;47518;51.776;9.370;2023-03-14T07:53:03;97656.81;;;9.32;91.83
61618;BME280;47518;51.776;9.370;2023-03-14T07:59:20;97673.00;;;9.51;91.60
61618;BME280;47518;51.776;9.370;2023-03-14T08:01:51;97690.13;;;9.63;88.57
61618;BME280;47518;51.776;9.370;2023-03-14T08:10:33;97666.88;;;9.90;88.42
61618;BME280;47518;51.776;9.370;2023-03-14T08:13:12;97646.81;;;9.91;85.66
61618;BME280;47518;51.776;9.370;2023-03-14T08:15:48;97661.59;;;9.96;86.49
61618;BME280;47518;51.776;9.370;2023-03-14T08:18:26;97660.59;;;10.13;85.02
61618;BME280;47518;51.776;9.370;2023-03-14T08:21:14;97677.41;;;10.22;86.06
61618;BME280;47518;51.776;9.370;2023-03-14T08:23:46;97664.16;;;10.26;84.88
61618;BME280;47518;51.776;9.370;2023-03-14T08:26:12;97661.09;;;10.22;84.02
61618;BME280;47518;51.776;9.370;2023-03-14T08:28:38;97666.28;;;10.23;85.17
61618;BME280;47518;51.776;9.370;2023-03-14T08:31:07;97655.19;;;10.13;83.69
61618;BME280;47518;51.776;9.370;2023-03-14T08:33:48;97664.97;;;10.14;85.56
61618;BME280;47518;51.776;9.370;2023-03-14T08:40:14;97666.66;;;9.92;89.19
61618;BME280;47518;51.776;9.370;2023-03-14T08:42:41;97676.19;;;9.83;88.95
61618;BME280;47518;51.776;9.370;2023-03-14T08:48:57;97664.16;;;9.79;90.63
61618;BME280;47518;51.776;9.370;2023-03-14T08:58:46;97684.22;;;9.89;90.67
61618;BME280;47518;51.776;9.370;2023-03-14T09:01:17;97688.59;;;9.79;91.29
61618;BME280;47518;51.776;9.370;2023-03-14T09:03:50;97673.84;;;9.75;94.18
61618;BME280;47518;51.776;9.370;2023-03-14T09:06:48;97683.66;;;9.87;92.53
61618;BME280;47518;51.776;9.370;2023-03-14T09:10:07;97672.66;;;10.06;90.39
61618;BME280;47518;51.776;9.370;2023-03-14T09:12:45;97681.03;;;10.16;90.35
61618;BME280;47518;51.776;9.370;2023-03-14T09:15:20;97676.78;;;10.20;91.05
61618;BME280;47518;51.776;9.370;2023-03-14T09:18:11;97679.84;;;10.35;89.93
61618;BME280;47518;51.776;9.370;2023-03-14T09:32:47;97662.34;;;10.83;84.89
61618;BME280;47518;51.776;9.370;2023-03-14T09:34:44;97670.06;;;11.03;84.96
61618;BME280;47518;51.776;9.370;2023-03-14T09:38:29;97677.47;;;11.07;81.92
61618;BME280;47518;51.776;9.370;2023-03-14T09:40:44;97672.16;;;11.13;79.35
61618;BME280;47518;51.776;9.370;2023-03-14T09:43:11;97670.50;;;11.12;81.48
61618;BME280;47518;51.776;9.370;2023-03-14T09:46:14;97678.78;;;11.05;79.55
61618;BME280;47518;51.776;9.370;2023-03-14T09:49:34;97678.25;;;10.91;79.95
61618;BME280;47518;51.776;9.370;2023-03-14T09:55:22;97675.97;;;10.71;84.89
61618;BME280;47518;51.776;9.370;2023-03-14T10:01:08;97678.09;;;10.98;82.93
61618;BME280;47518;51.776;9.370;2023-03-14T10:10:20;97679.09;;;11.37;80.54
61618;BME280;47518;51.776;9.370;2023-03-14T10:16:18;97682.00;;;11.47;79.16
61618;BME280;47518;51.776;9.370;2023-03-14T10:19:16;97685.00;;;11.34;77.17
61618;BME280;47518;51.776;9.370;2023-03-14T10:36:32;97680.03;;;11.59;78.98
61618;BME280;47518;51.776;9.370;2023-03-14T11:03:13;97670.66;;;10.65;90.78
61618;BME280;47518;51.776;9.370;2023-03-14T11:38:43;97761.25;;;9.35;100.00
61618;BME280;47518;51.776;9.370;2023-03-14T12:15:30;97987.22;;;7.98;97.54
61618;BME280;47518;51.776;9.370;2023-03-14T12:21:24;98004.78;;;7.24;91.88
61618;BME280;47518;51.776;9.370;2023-03-14T12:24:19;98027.69;;;7.08;92.78
61618;BME280;47518;51.776;9.370;2023-03-14T12:26:53;98031.59;;;7.06;91.12
61618;BME280;47518;51.776;9.370;2023-03-14T12:29:56;98055.72;;;7.14;92.42
61618;BME280;47518;51.776;9.370;2023-03-14T12:32:35;98086.50;;;6.86;92.00
61618;BME280;47518;51.776;9.370;2023-03-14T12:35:39;98119.69;;;6.67;91.73
61618;BME280;47518;51.776;9.370;2023-03-14T12:38:17;98101.78;;;6.46;89.61
61618;BME280;47518;51.776;9.370;2023-03-14T12:43:53;98141.78;;;5.88;88.92
61618;BME280;47518;51.776;9.370;2023-03-14T12:46:29;98175.75;;;5.76;89.12
61618;BME280;47518;51.776;9.370;2023-03-14T12:49:10;98205.03;;;5.51;89.93
61618;BME280;47518;51.776;9.370;2023-03-14T12:52:02;98243.31;;;5.68;91.39
61618;BME280;47518;51.776;9.370;2023-03-14T12:54:47;98236.44;;;5.37;88.65
61618;BME280;47518;51.776;9.370;2023-03-14T12:57:25;98239.34;;;5.42;89.48
61618;BME280;47518;51.776;9.370;2023-03-14T13:00:02;98245.78;;;5.20;86.46
61618;BME280;47518;51.776;9.370;2023-03-14T13:05:56;98265.34;;;5.28;87.22
61618;BME280;47518;51.776;9.370;2023-03-14T13:13:42;98286.16;;;5.35;90.61
61618;BME280;47518;51.776;9.370;2023-03-14T13:16:15;98310.84;;;5.60;91.08
61618;BME280;47518;51.776;9.370;2023-03-14T13:18:43;98309.94;;;5.52;89.33
61618;BME280;47518;51.776;9.370;2023-03-14T13:36:53;98364.31;;;5.56;88.68
61618;BME280;47518;51.776;9.370;2023-03-14T13:39:26;98360.56;;;5.36;87.52
61618;BME280;47518;51.776;9.370;2023-03-14T13:41:54;98366.22;;;5.62;87.42
61618;BME280;47518;51.776;9.370;2023-03-14T13:44:39;98365.72;;;5.73;86.37
61618;BME280;47518;51.776;9.370;2023-03-14T13:47:15;98373.28;;;5.84;85.12
61618;BME280;47518;51.776;9.370;2023-03-14T13:49:48;98391.06;;;6.00;83.90
61618;BME280;47518;51.776;9.370;2023-03-14T13:52:29;98404.06;;;6.39;84.24
61618;BME280;47518;51.776;9.370;2023-03-14T13:55:22;98407.75;;;6.32;81.52
61618;BME280;47518;51.776;9.370;2023-03-14T13:57:53;98422.06;;;6.32;83.29
61618;BME280;47518;51.776;9.370;2023-03-14T14:00:24;98419.19;;;6.12;82.21
61618;BME280;47518;51.776;9.370;2023-03-14T14:02:58;98440.84;;;5.98;83.56
61618;BME280;47518;51.776;9.370;2023-03-14T14:05:27;98446.25;;;6.19;85.23
61618;BME280;47518;51.776;9.370;2023-03-14T14:08:03;98459.63;;;6.06;82.99
61618;BME280;47518;51.776;9.370;2023-03-14T14:10:32;98446.66;;;6.16;85.31
61618;BME280;47518;51.776;9.370;2023-03-14T14:13:06;98474.50;;;6.23;81.76
61618;BME280;47518;51.776;9.370;2023-03-14T14:15:39;98483.25;;;6.25;80.92
61618;BME280;47518;51.776;9.370;2023-03-14T14:18:08;98505.41;;;6.21;81.51
61618;BME280;47518;51.776;9.370;2023-03-14T14:20:38;98500.81;;;6.14;81.86
61618;BME280;47518;51.776;9.370;2023-03-14T14:23:25;98529.38;;;6.52;82.78
61618;BME280;47518;51.776;9.370;2023-03-14T14:25:57;98524.41;;;6.34;81.93
61618;BME280;47518;51.776;9.370;2023-03-14T14:28:27;98542.34;;;6.20;82.64
61618;BME280;47518;51.776;9.370;2023-03-14T15:04:43;98672.00;;;4.69;85.67
61618;BME280;47518;51.776;9.370;2023-03-14T15:07:11;98671.97;;;4.78;87.05
61618;BME280;47518;51.776;9.370;2023-03-14T15:09:36;98670.94;;;4.79;89.25
61618;BME280;47518;51.776;9.370;2023-03-14T15:12:02;98690.81;;;4.78;89.75
61618;BME280;47518;51.776;9.370;2023-03-14T15:14:27;98693.09;;;4.89;86.92
61618;BME280;47518;51.776;9.370;2023-03-14T15:16:56;98694.34;;;5.01;89.64
61618;BME280;47518;51.776;9.370;2023-03-14T15:19:24;98701.97;;;5.12;89.33
61618;BME280;47518;51.776;9.370;2023-03-14T15:21:53;98711.69;;;5.21;88.51
61618;BME280;47518;51.776;9.370;2023-03-14T15:24:19;98710.94;;;5.27;88.11
61618;BME280;47518;51.776;9.370;2023-03-14T15:26:44;98715.50;;;5.27;87.14
61618;BME280;47518;51.776;9.370;2023-03-14T15:29:10;98734.78;;;5.53;85.65
61618;BME280;47518;51.776;9.370;2023-03-14T15:31:39;98733.66;;;5.48;86.95
61618;BME280;47518;51.776;9.370;2023-03-14T15:34:08;98738.25;;;5.62;86.54
61618;BME280;47518;51.776;9.370;2023-03-14T15:36:34;98754.41;;;5.62;86.67
61618;BME280;47518;51.776;9.370;2023-03-14T15:39:22;98753.69;;;5.31;87.76
61618;BME280;47518;51.776;9.370;2023-03-14T15:41:47;98748.56;;;5.21;85.46
61618;BME280;47518;51.776;9.370;2023-03-14T15:44:21;98767.34;;;5.06;84.38
61618;BME280;47518;51.776;9.370;2023-03-14T15:46:50;98759.44;;;5.27;83.05
61618;BME280;47518;51.776;9.370;2023-03-14T15:49:42;98768.06;;;5.46;78.52
61618;BME280;47518;51.776;9.370;2023-03-14T15:52:09;98776.75;;;5.71;78.77
61618;BME280;47518;51.776;9.370;2023-03-14T15:54:35;98777.88;;;5.76;74.97
61618;BME280;47518;51.776;9.370;2023-03-14T15:57:04;98793.16;;;5.84;72.81
61618;BME280;47518;51.776;9.370;2023-03-14T15:59:41;98796.84;;;5.68;74.63
61618;BME280;47518;51.776;9.370;2023-03-14T16:02:09;98796.13;;;5.89;75.34
61618;BME280;47518;51.776;9.370;2023-03-14T16:04:35;98804.75;;;5.84;74.25
61618;BME280;47518;51.776;9.370;2023-03-14T16:07:03;98805.13;;;5.81;71.46
61618;BME280;47518;51.776;9.370;2023-03-14T16:12:14;98805.84;;;5.75;73.73
61618;BME280;47518;51.776;9.370;2023-03-14T16:14:59;98832.59;;;5.62;70.95
61618;BME280;47518;51.776;9.370;2023-03-14T16:17:25;98824.34;;;5.41;68.21
61618;BME280;47518;51.776;9.370;2023-03-14T16:19:50;98844.03;;;5.41;71.67
61618;BME280;47518;51.776;9.370;2023-03-14T16:22:19;98844.22;;;5.40;69.25
61618;BME280;47518;51.776;9.370;2023-03-14T16:24:44;98845.28;;;5.31;66.53
61618;BME280;47518;51.776;9.370;2023-03-14T16:27:13;98851.06;;;5.50;67.08
61618;BME280;47518;51.776;9.370;2023-03-14T16:29:39;98867.00;;;5.60;70.85
61618;BME280;47518;51.776;9.370;2023-03-14T16:32:08;98863.63;;;5.81;66.38
61618;BME280;47518;51.776;9.370;2023-03-14T16:34:35;98869.75;;;5.98;63.98
61618;BME280;47518;51.776;9.370;2023-03-14T16:37:09;98880.06;;;6.47;63.29
61618;BME280;47518;51.776;9.370;2023-03-14T16:39:38;98873.38;;;6.72;59.76
61618;BME280;47518;51.776;9.370;2023-03-14T16:42:04;98891.25;;;6.73;60.98
61618;BME280;47518;51.776;9.370;2023-03-14T16:44:30;98903.41;;;7.13;62.99
61618;BME280;47518;51.776;9.370;2023-03-14T16:46:59;98896.34;;;6.97;62.06
61618;BME280;47518;51.776;9.370;2023-03-14T16:49:30;98915.72;;;6.57;56.87
61618;BME280;47518;51.776;9.370;2023-03-14T16:52:09;98913.72;;;6.21;57.95
61618;BME280;47518;51.776;9.370;2023-03-14T16:54:37;98917.38;;;5.82;63.41
61618;BME280;47518;51.776;9.370;2023-03-14T16:57:19;98937.47;;;5.80;62.13
61618;BME280;47518;51.776;9.370;2023-03-14T16:59:48;98935.84;;;5.40;63.70
61618;BME280;47518;51.776;9.370;2023-03-14T17:02:24;98941.75;;;5.66;63.07
61618;BME280;47518;51.776;9.370;2023-03-14T17:05:00;98942.44;;;5.68;63.06
61618;BME280;47518;51.776;9.370;2023-03-14T17:07:25;98948.09;;;5.50;66.90
61618;BME280;47518;51.776;9.370;2023-03-14T17:09:51;98950.75;;;5.27;63.34
61618;BME280;47518;51.776;9.370;2023-03-14T17:12:27;98963.53;;;5.34;67.70
61618;BME280;47518;51.776;9.370;2023-03-14T17:14:53;98970.03;;;5.08;68.15
61618;BME280;47518;51.776;9.370;2023-03-14T17:17:23;98976.25;;;5.09;67.06
61618;BME280;47518;51.776;9.370;2023-03-14T17:19:53;98998.88;;;5.31;67.18
61618;BME280;47518;51.776;9.370;2023-03-14T17:22:22;99004.81;;;5.26;69.18
61618;BME280;47518;51.776;9.370;2023-03-14T17:24:59;99028.97;;;5.11;70.40
61618;BME280;47518;51.776;9.370;2023-03-14T17:27:37;99023.75;;;5.10;68.52
61618;BME280;47518;51.776;9.370;2023-03-14T17:30:26;99024.44;;;4.95;70.77
61618;BME280;47518;51.776;9.370;2023-03-14T17:39:27;99062.00;;;4.89;70.09
61618;BME280;47518;51.776;9.370;2023-03-14T17:41:55;99075.28;;;4.90;69.59
61618;BME280;47518;51.776;9.370;2023-03-14T17:44:30;99074.28;;;5.00;68.79
61618;BME280;47518;51.776;9.370;2023-03-14T17:47:02;99081.81;;;5.12;67.92
61618;BME280;47518;51.776;9.370;2023-03-14T17:49:48;99106.41;;;5.01;66.95
61618;BME280;47518;51.776;9.370;2023-03-14T17:54:06;99114.66;;;5.08;68.93
61618;BME280;47518;51.776;9.370;2023-03-14T17:55:31;99123.69;;;5.31;69.70
61618;BME280;47518;51.776;9.370;2023-03-14T17:57:57;99127.09;;;5.33;64.70
61618;BME280;47518;51.776;9.370;2023-03-14T18:00:33;99128.59;;;5.19;66.41
61618;BME280;47518;51.776;9.370;2023-03-14T18:03:04;99143.97;;;5.11;64.84
61618;BME280;47518;51.776;9.370;2023-03-14T18:06:02;99150.00;;;5.21;69.07
61618;BME280;47518;51.776;9.370;2023-03-14T18:08:46;99157.03;;;5.38;67.05
61618;BME280;47518;51.776;9.370;2023-03-14T18:11:12;99164.78;;;5.41;69.54
61618;BME280;47518;51.776;9.370;2023-03-14T18:14:01;99178.72;;;5.61;69.23
61618;BME280;47518;51.776;9.370;2023-03-14T18:16:41;99182.78;;;5.57;70.44
61618;BME280;47518;51.776;9.370;2023-03-14T18:19:10;99193.41;;;5.42;67.24
61618;BME280;47518;51.776;9.370;2023-03-14T18:22:13;99201.31;;;5.52;68.91
61618;BME280;47518;51.776;9.370;2023-03-14T18:25:05;99212.22;;;5.67;68.46
61618;BME280;47518;51.776;9.370;2023-03-14T18:27:39;99225.09;;;5.56;67.42